Albany, Kentucky
Current Conditions -  °F | °C
As of 2:56 AM on Thursday 27 Nov 2014 (Local Time) from KEKQ Reporting Station
Light Snow Light Snow  
Wind Chill: 28°   Ceiling: 700
Heat Index: 36°   Visibility: 5mi
Dew Point: 34°   Wind: 12mph
Humidity: 93%   Direction: 290°WNW
Pressure: 30.09"   Gusts: NA
Location:  36.69°N, 85.13°W
Report Text: KEKQ 270856Z AUTO 29010KT 5SM -SN BR OVC007 02/01 A3009 RMK AO2 53016 60001 T00220011 CIG 005V009 SNE18B41 P0000 SLP194
Loading
Personal Weather Stations






























Interactive Weather Map New forecast layout! Learn more

10-Day Weather Forecast

Advertisements
Track Severe Weather on mobile